^^
Grace C. Lehan Memorial Weather Station Historical Data
Daily Summary for January 17, 2021 Units:  English    Metric   Both
Daily Weekly Monthly Yearly
  High: Low: Average:
Temperature: 82.8 °F 67.2 °F 75.2 °F
Dew Point: 70.9 °F 64 °F 66.4 °F
Humidity: 92% 55.5% 75%
Wind Speed: 1.4mph 0mph 0.1mph
Wind Gust: 10mph - -
Wind- - SW
Pressure: 30.20 in 30.13 in -
Precipitation: 0.00 in    
 
 
Tabular Data for January 17, 2021
Time Temperature Dew Point Pressure Wind Wind Speed Wind Gust Humidity Rainfall Rate (Hourly) solar
00:09 69.5 °F 64.1 °F 30.17 in Calm     83% 0.00 in 0 W/m2
00:14 69.4 °F 64 °F 30.16 in Calm     83% 0.00 in 0 W/m2
00:19 69.4 °F 64.3 °F 30.17 in Calm     83.8% 0.00 in 0 W/m2
00:24 69.3 °F 64.2 °F 30.17 in Calm     84% 0.00 in 0 W/m2
00:29 69.2 °F 64.3 °F 30.17 in Calm     84.3% 0.00 in 0 W/m2
00:34 69.1 °F 64.2 °F 30.17 in Calm     84.3% 0.00 in 0 W/m2
00:39 69.1 °F 64.4 °F 30.17 in Calm     85% 0.00 in 0 W/m2
00:44 69 °F 64.4 °F 30.17 in Calm     85% 0.00 in 0 W/m2
00:49 69 °F 64.3 °F 30.17 in Calm     85% 0.00 in 0 W/m2
00:54 68.9 °F 64.2 °F 30.17 in Calm     85% 0.00 in 0 W/m2
00:59 68.9 °F 64.5 °F 30.17 in Calm     85.7% 0.00 in 0 W/m2
01:04 68.9 °F 64.6 °F 30.17 in Calm     86% 0.00 in 0 W/m2
01:09 68.8 °F 64.5 °F 30.17 in Calm     86% 0.00 in 0 W/m2
01:14 68.8 °F 64.4 °F 30.17 in Calm     86% 0.00 in 0 W/m2
01:19 68.7 °F 64.5 °F 30.17 in Calm     86.5% 0.00 in 0 W/m2
01:24 68.7 °F 64.6 °F 30.17 in Calm     87% 0.00 in 0 W/m2
01:29 68.6 °F 64.6 °F 30.17 in Calm     87% 0.00 in 0 W/m2
01:34 68.5 °F 64.5 °F 30.17 in Calm     87% 0.00 in 0 W/m2
01:39 68.4 °F 64.4 °F 30.17 in Calm     87% 0.00 in 0 W/m2
01:44 68.4 °F 64.4 °F 30.17 in Calm     87% 0.00 in 0 W/m2
01:49 68.3 °F 64.3 °F 30.17 in Calm     87% 0.00 in 0 W/m2
01:54 68.2 °F 64.3 °F 30.17 in Calm     87.3% 0.00 in 0 W/m2
01:59 68.2 °F 64.5 °F 30.17 in Calm     88% 0.00 in 0 W/m2
02:04 68.1 °F 64.5 °F 30.16 in Calm     88% 0.00 in 0 W/m2
02:09 68 °F 64.4 °F 30.16 in Calm     88% 0.00 in 0 W/m2
02:14 68 °F 64.3 °F 30.16 in Calm     88% 0.00 in 0 W/m2
02:19 67.9 °F 64.2 °F 30.16 in Calm     88% 0.00 in 0 W/m2
02:24 67.8 °F 64.4 °F 30.16 in Calm     88.6% 0.00 in 0 W/m2
02:29 67.8 °F 64.4 °F 30.16 in Calm     89% 0.00 in 0 W/m2
02:34 67.7 °F 64.3 °F 30.16 in Calm     89% 0.00 in 0 W/m2
02:39 67.7 °F 64.3 °F 30.16 in Calm     89% 0.00 in 0 W/m2
02:44 67.6 °F 64.3 °F 30.16 in Calm     89% 0.00 in 0 W/m2
02:49 67.6 °F 64.3 °F 30.16 in Calm     89% 0.00 in 0 W/m2
02:54 67.7 °F 64.7 °F 30.16 in Calm     90% 0.00 in 0 W/m2
02:59 67.7 °F 64.7 °F 30.16 in Calm     90% 0.00 in 0 W/m2
03:04 67.7 °F 64.6 °F 30.16 in Calm     90% 0.00 in 0 W/m2
03:09 67.6 °F 64.6 °F 30.16 in Calm     90% 0.00 in 0 W/m2
03:14 67.6 °F 64.6 °F 30.16 in Calm     90% 0.00 in 0 W/m2
03:19 67.6 °F 64.6 °F 30.16 in Calm     90% 0.00 in 0 W/m2
03:24 67.5 °F 64.5 °F 30.16 in Calm     90% 0.00 in 0 W/m2
03:29 67.5 °F 64.5 °F 30.16 in Calm     90% 0.00 in 0 W/m2
03:34 67.5 °F 64.5 °F 30.16 in Calm     90% 0.00 in 0 W/m2
03:39 67.5 °F 64.5 °F 30.16 in Calm     90% 0.00 in 0 W/m2
03:44 67.5 °F 64.5 °F 30.16 in Calm     90% 0.00 in 0 W/m2
03:49 67.5 °F 64.4 °F 30.16 in Calm     90% 0.00 in 0 W/m2
03:54 67.4 °F 64.4 °F 30.16 in Calm     90% 0.00 in 0 W/m2
03:59 67.5 °F 64.5 °F 30.16 in Calm     90% 0.00 in 0 W/m2
04:00 67.5 °F 64.5 °F 30.16 in Calm     90% 0.00 in 0 W/m2
04:09 67.5 °F 64.5 °F 30.16 in Calm     90.1% 0.00 in 0 W/m2
04:14 67.5 °F 64.8 °F 30.16 in Calm     91% 0.00 in 0 W/m2
04:19 67.5 °F 64.8 °F 30.16 in Calm     91% 0.00 in 0 W/m2
04:24 67.5 °F 64.8 °F 30.16 in Calm     91% 0.00 in 0 W/m2
04:29 67.5 °F 64.8 °F 30.16 in Calm     91% 0.00 in 0 W/m2
04:34 67.5 °F 64.8 °F 30.16 in Calm     91% 0.00 in 0 W/m2
04:39 67.5 °F 64.8 °F 30.16 in Calm     91% 0.00 in 0 W/m2
04:44 67.6 °F 64.9 °F 30.16 in Calm     91% 0.00 in 0 W/m2
04:49 67.6 °F 64.9 °F 30.16 in Calm     91% 0.00 in 0 W/m2
04:54 67.6 °F 64.9 °F 30.16 in Calm     91% 0.00 in 0 W/m2
04:59 67.6 °F 64.9 °F 30.16 in Calm     91% 0.00 in 0 W/m2
05:04 67.6 °F 64.9 °F 30.16 in Calm     91% 0.00 in 0 W/m2
05:09 67.6 °F 64.9 °F 30.16 in Calm     91% 0.00 in 0 W/m2
05:14 67.6 °F 64.9 °F 30.16 in Calm     91% 0.00 in 0 W/m2
05:19 67.6 °F 64.9 °F 30.16 in Calm     91% 0.00 in 0 W/m2
05:24 67.5 °F 64.8 °F 30.16 in Calm     91% 0.00 in 0 W/m2
05:29 67.5 °F 64.8 °F 30.16 in Calm     91% 0.00 in 0 W/m2
05:34 67.4 °F 64.7 °F 30.17 in Calm     91% 0.00 in 0 W/m2
05:39 67.4 °F 64.7 °F 30.17 in Calm     91% 0.00 in 0 W/m2
05:44 67.4 °F 64.7 °F 30.17 in Calm     91% 0.00 in 0 W/m2
05:49 67.3 °F 64.6 °F 30.18 in Calm     91% 0.00 in 0 W/m2
05:54 67.3 °F 64.6 °F 30.18 in Calm     91% 0.00 in 0 W/m2
05:59 67.3 °F 64.6 °F 30.18 in Calm     91% 0.00 in 0 W/m2
06:04 67.2 °F 64.7 °F 30.18 in Calm     91.6% 0.00 in 0 W/m2
06:09 67.2 °F 64.8 °F 30.18 in Calm     92% 0.00 in 5 W/m2
06:14 67.2 °F 64.8 °F 30.18 in Calm     92% 0.00 in 9 W/m2
06:19 67.2 °F 64.8 °F 30.18 in Calm     92% 0.00 in 11 W/m2
06:24 67.2 °F 64.8 °F 30.18 in Calm     92% 0.00 in 14 W/m2
06:29 67.3 °F 64.9 °F 30.18 in Calm     92% 0.00 in 19 W/m2
06:34 67.4 °F 65 °F 30.18 in Calm     92% 0.00 in 25 W/m2
06:39 67.5 °F 65.1 °F 30.18 in Calm     92% 0.00 in 28 W/m2
06:44 67.6 °F 65.2 °F 30.18 in Calm     92% 0.00 in 35 W/m2
06:49 67.7 °F 65.3 °F 30.18 in Calm     92% 0.00 in 42 W/m2
06:54 67.9 °F 65.5 °F 30.18 in Calm     92% 0.00 in 42 W/m2
06:59 68.1 °F 65.7 °F 30.18 in Calm     92% 0.00 in 42 W/m2
07:04 68.3 °F 65.9 °F 30.18 in Calm     92% 0.00 in 42 W/m2
07:09 68.5 °F 66 °F 30.18 in Calm     92% 0.00 in 42 W/m2
07:14 68.6 °F 66.2 °F 30.19 in Calm     92% 0.00 in 58 W/m2
07:19 68.8 °F 66.2 °F 30.18 in Calm     91.6% 0.00 in 63 W/m2
07:24 69 °F 66.2 °F 30.19 in Calm     91% 0.00 in 65 W/m2
07:29 69.2 °F 66.5 °F 30.19 in Calm     91% 0.00 in 65 W/m2
07:34 69.4 °F 66.7 °F 30.19 in Calm     91% 0.00 in 65 W/m2
07:39 69.6 °F 66.9 °F 30.19 in Calm     91% 0.00 in 67 W/m2
07:44 69.8 °F 67.1 °F 30.19 in Calm     91% 0.00 in 79 W/m2
07:49 70 °F 67.1 °F 30.19 in Calm     90.3% 0.00 in 88 W/m2
07:54 70.2 °F 67.1 °F 30.20 in Calm     89.8% 0.00 in 93 W/m2
07:59 70.3 °F 66.9 °F 30.20 in Calm     89% 0.00 in 144 W/m2
08:00 70.4 °F 67 °F 30.20 in Calm     89% 0.00 in 100 W/m2
08:09 70.8 °F 67.4 °F 30.19 in Calm     89% 0.00 in 105 W/m2
08:14 71.1 °F 67.6 °F 30.19 in Calm     88.9% 0.00 in 149 W/m2
08:19 71.4 °F 67.6 °F 30.19 in Calm     88% 0.00 in 123 W/m2
08:24 71.7 °F 67.8 °F 30.19 in Calm     87.6% 0.00 in 139 W/m2
08:29 72.1 °F 68 °F 30.19 in Calm     87% 0.00 in 156 W/m2
08:34 72.4 °F 68.2 °F 30.19 in Calm     86.5% 0.00 in 165 W/m2
08:39 72.7 °F 68.1 °F 30.19 in Calm     85.5% 0.00 in 338 W/m2
08:44 73.2 °F 68.4 °F 30.19 in Calm     84.9% 0.00 in 508 W/m2
08:49 73.9 °F 68.9 °F 30.19 in Calm     84.3% 0.00 in 380 W/m2
08:54 74.8 °F 69.2 °F 30.19 in Calm     82.8% 0.00 in 401 W/m2
08:59 75.6 °F 69.4 °F 30.19 in Calm   1 mph 80.9% 0.00 in 441 W/m2
09:04 76.3 °F 69.4 °F 30.19 in Calm   2 mph 79.3% 0.00 in 448 W/m2
09:09 77 °F 69.9 °F 30.19 in Calm   2 mph 78.7% 0.00 in 455 W/m2
09:14 77.7 °F 70.2 °F 30.19 in Calm   2 mph 77.7% 0.00 in 459 W/m2
09:19 78.4 °F 70.3 °F 30.19 in Calm   2 mph 76.2% 0.00 in 475 W/m2
09:24 79.1 °F 70.8 °F 30.19 in Calm   2 mph 75.8% 0.00 in 492 W/m2
09:29 79.7 °F 70.9 °F 30.19 in Calm   2 mph 74.7% 0.00 in 446 W/m2
09:34 80.1 °F 70.7 °F 30.19 in Calm   2 mph 73% 0.00 in 517 W/m2
09:39 80.4 °F 70.6 °F 30.19 in NNE 0.1 mph 2 mph 72.1% 0.00 in 563 W/m2
09:44 80.5 °F 69.4 °F 30.19 in Calm   2 mph 68.9% 0.00 in 510 W/m2
09:49 80.4 °F 69.1 °F 30.19 in NNE 0.2 mph 4 mph 68.4% 0.00 in 503 W/m2
09:54 80.4 °F 69.2 °F 30.19 in Calm   4 mph 68.6% 0.00 in 531 W/m2
09:59 80.8 °F 69.8 °F 30.19 in North 0.1 mph 4 mph 69.3% 0.00 in 483 W/m2
10:04 81.1 °F 69.4 °F 30.19 in Calm   4 mph 67.8% 0.00 in 496 W/m2
10:09 81 °F 68.8 °F 30.19 in Calm   2 mph 66.5% 0.00 in 559 W/m2
10:14 81.2 °F 69.4 °F 30.19 in North 0.2 mph 4 mph 67.5% 0.00 in 559 W/m2
10:19 81.4 °F 68.6 °F 30.19 in West 0.3 mph 10 mph 65.1% 0.00 in 471 W/m2
10:24 81.5 °F 67.2 °F 30.19 in SW 0.5 mph 10 mph 61.9% 0.00 in 471 W/m2
10:29 81.5 °F 66.9 °F 30.19 in SW 0.1 mph 10 mph 61.2% 0.00 in 369 W/m2
10:34 81.6 °F 67.7 °F 30.19 in West 0.5 mph 10 mph 62.8% 0.00 in 362 W/m2
10:39 81.7 °F 67.8 °F 30.19 in WSW 0.4 mph 6 mph 62.9% 0.00 in 334 W/m2
10:44 81.8 °F 68.2 °F 30.19 in WSW 0.1 mph 6 mph 63.4% 0.00 in 338 W/m2
10:49 81.8 °F 67.8 °F 30.19 in WSW 0.7 mph 6 mph 62.7% 0.00 in 408 W/m2
10:54 81.7 °F 67.3 °F 30.18 in WSW 0.4 mph 6 mph 61.8% 0.00 in 571 W/m2
10:59 81.6 °F 67.3 °F 30.18 in West 0.3 mph 6 mph 62% 0.00 in 534 W/m2
11:04 81.7 °F 67.4 °F 30.18 in West 0.7 mph 6 mph 61.8% 0.00 in 455 W/m2
11:09 81.7 °F 67.8 °F 30.18 in Calm   4 mph 62.7% 0.00 in 325 W/m2
11:14 81.5 °F 67 °F 30.18 in Calm   4 mph 61.5% 0.00 in 568 W/m2
11:19 81.6 °F 67.5 °F 30.18 in Calm   4 mph 62.5% 0.00 in 503 W/m2
11:24 81.6 °F 67.7 °F 30.18 in WSW 0.3 mph 4 mph 62.7% 0.00 in 418 W/m2
11:29 81.7 °F 68.1 °F 30.18 in WSW 0.1 mph 4 mph 63.5% 0.00 in 418 W/m2
11:34 81.7 °F 68.2 °F 30.18 in WSW 0.1 mph 4 mph 63.6% 0.00 in 320 W/m2
11:39 81.5 °F 68 °F 30.18 in Calm   2 mph 63.6% 0.00 in 278 W/m2
11:44 81.3 °F 67.2 °F 30.18 in Calm   2 mph 62.5% 0.00 in 274 W/m2
11:49 80.9 °F 66.6 °F 30.18 in WSW 0.1 mph 2 mph 61.9% 0.00 in 315 W/m2
11:54 80.6 °F 66.9 °F 30.18 in WSW 0.5 mph 5 mph 63.1% 0.00 in 357 W/m2
11:59 80.5 °F 66.9 °F 30.17 in Calm   5 mph 63.4% 0.00 in 422 W/m2
12:00 80.4 °F 66.2 °F 30.17 in Calm   5 mph 62% 0.00 in 422 W/m2
12:09 80.6 °F 67.2 °F 30.17 in West 0.5 mph 6 mph 63.8% 0.00 in 469 W/m2
12:14 80.9 °F 68.2 °F 30.17 in West 0.5 mph 6 mph 65.4% 0.00 in 599 W/m2
12:19 81.5 °F 67.9 °F 30.17 in West 0.7 mph 6 mph 63.4% 0.00 in 599 W/m2
12:24 82 °F 68.1 °F 30.17 in SW 0.4 mph 6 mph 62.9% 0.00 in 584 W/m2
12:29 82.2 °F 67.8 °F 30.17 in SW 1 mph 6 mph 61.9% 0.00 in 538 W/m2
12:34 82.3 °F 67.8 °F 30.17 in SW 1.2 mph 7 mph 61.6% 0.00 in 506 W/m2
12:39 82.4 °F 68.5 °F 30.17 in WSW 0.5 mph 8 mph 63% 0.00 in 438 W/m2
12:44 82.5 °F 68.2 °F 30.17 in WSW 0.1 mph 8 mph 62% 0.00 in 476 W/m2
12:49 82.4 °F 67.5 °F 30.17 in SW 0.2 mph 8 mph 60.7% 0.00 in 628 W/m2
12:54 82.4 °F 67.2 °F 30.17 in SSW 0.8 mph 8 mph 60.3% 0.00 in 635 W/m2
12:59 82.3 °F 67.1 °F 30.17 in South 0.1 mph 8 mph 60.2% 0.00 in 601 W/m2
13:04 82.4 °F 67.2 °F 30.17 in SW 1 mph 8 mph 60.2% 0.00 in 640 W/m2
13:09 82.7 °F 67 °F 30.17 in SW 0.5 mph 7 mph 59.1% 0.00 in 531 W/m2
13:14 82.8 °F 67 °F 30.17 in SW 1.4 mph 7 mph 58.8% 0.00 in 369 W/m2
13:19 82.8 °F 66.2 °F 30.17 in SW 0.2 mph 7 mph 57.5% 0.00 in 371 W/m2
13:24 82.6 °F 66.4 °F 30.17 in West 1 mph 7 mph 58% 0.00 in 478 W/m2
13:29 82.5 °F 65 °F 30.16 in SW 1 mph 7 mph 55.5% 0.00 in 545 W/m2
13:34 82.5 °F 65.4 °F 30.17 in SW 0.6 mph 7 mph 56.3% 0.00 in 510 W/m2
13:39 82.5 °F 65 °F 30.16 in South 0.3 mph 7 mph 55.7% 0.00 in 543 W/m2
13:44 82.4 °F 65.5 °F 30.16 in South 0.3 mph 7 mph 56.8% 0.00 in 417 W/m2
13:49 82.2 °F 65.5 °F 30.16 in Calm   7 mph 57.2% 0.00 in 404 W/m2
13:54 82.1 °F 66.3 °F 30.16 in SW 0.5 mph 7 mph 58.9% 0.00 in 515 W/m2
13:59 82.2 °F 66.9 °F 30.16 in SW 0.8 mph 7 mph 59.9% 0.00 in 504 W/m2
14:04 82.2 °F 66.8 °F 30.16 in WSW 0.1 mph 7 mph 59.6% 0.00 in 415 W/m2
14:09 82.3 °F 66.8 °F 30.16 in SW 0.1 mph 2 mph 59.6% 0.00 in 415 W/m2
14:14 82.2 °F 67.1 °F 30.16 in SW 0.1 mph 2 mph 60.2% 0.00 in 462 W/m2
14:19 82.3 °F 67.4 °F 30.16 in SW 0.3 mph 5 mph 60.7% 0.00 in 385 W/m2
14:24 82.2 °F 67 °F 30.16 in South 0.2 mph 5 mph 60% 0.00 in 330 W/m2
14:29 82.1 °F 67.2 °F 30.16 in Calm   5 mph 60.7% 0.00 in 461 W/m2
14:34 82 °F 67.1 °F 30.16 in Calm   5 mph 60.8% 0.00 in 461 W/m2
14:39 82 °F 67.6 °F 30.16 in South 0.1 mph 1 mph 61.9% 0.00 in 294 W/m2
14:44 82.1 °F 68.3 °F 30.16 in South 0.3 mph 3 mph 63.2% 0.00 in 276 W/m2
14:49 82.2 °F 67.9 °F 30.16 in Calm   3 mph 62% 0.00 in 267 W/m2
14:54 82.3 °F 68.3 °F 30.16 in SSW 0.2 mph 4 mph 62.6% 0.00 in 206 W/m2
14:59 82.4 °F 68.2 °F 30.16 in SW 0.3 mph 4 mph 62.4% 0.00 in 202 W/m2
15:04 82.2 °F 67.5 °F 30.16 in SW 0.2 mph 4 mph 61.2% 0.00 in 188 W/m2
15:09 81.9 °F 67.5 °F 30.16 in Calm   2 mph 61.7% 0.00 in 172 W/m2
15:14 81.8 °F 67.9 °F 30.16 in SW 0.2 mph 3 mph 62.9% 0.00 in 188 W/m2
15:19 81.9 °F 68.5 °F 30.16 in WSW 0.2 mph 4 mph 63.9% 0.00 in 315 W/m2
15:24 82 °F 68.6 °F 30.15 in Calm   4 mph 63.9% 0.00 in 315 W/m2
15:29 82.1 °F 68.3 °F 30.15 in Calm   4 mph 63.2% 0.00 in 234 W/m2
15:34 81.9 °F 68 °F 30.15 in West 0.1 mph 4 mph 62.8% 0.00 in 244 W/m2
15:39 81.9 °F 68.5 °F 30.15 in West 0.3 mph 3 mph 64% 0.00 in 230 W/m2
15:44 81.9 °F 68.2 °F 30.15 in West 0.2 mph 3 mph 63.3% 0.00 in 230 W/m2
15:49 81.8 °F 68.4 °F 30.15 in Calm   3 mph 64% 0.00 in 193 W/m2
15:54 81.7 °F 67.9 °F 30.15 in Calm   3 mph 63% 0.00 in 178 W/m2
15:59 81.5 °F 67.6 °F 30.15 in West 0.1 mph 3 mph 62.8% 0.00 in 165 W/m2
16:00 81.4 °F 67.6 °F 30.15 in Calm   3 mph 63% 0.00 in 121 W/m2
16:09 81.2 °F 68.1 °F 30.15 in West 0.1 mph 2 mph 64.5% 0.00 in 167 W/m2
16:14 81.1 °F 67.7 °F 30.15 in West 0.2 mph 4 mph 63.7% 0.00 in 153 W/m2
16:19 81 °F 67.6 °F 30.15 in West 0.1 mph 4 mph 63.8% 0.00 in 142 W/m2
16:24 80.8 °F 67.1 °F 30.15 in WSW 0.3 mph 5 mph 63.2% 0.00 in 111 W/m2
16:29 80.6 °F 67 °F 30.15 in WSW 0.4 mph 5 mph 63.4% 0.00 in 206 W/m2
16:34 80.5 °F 67.3 °F 30.14 in WSW 0.3 mph 5 mph 64.2% 0.00 in 214 W/m2
16:39 80.5 °F 67.1 °F 30.14 in Calm   3 mph 63.7% 0.00 in 167 W/m2
16:44 80.5 °F 66.6 °F 30.14 in Calm   3 mph 62.7% 0.00 in 195 W/m2
16:49 80.5 °F 66.8 °F 30.14 in WSW 0.2 mph 3 mph 63.1% 0.00 in 183 W/m2
16:54 80.7 °F 67.2 °F 30.14 in WSW 0.1 mph 3 mph 63.6% 0.00 in 165 W/m2
16:59 80.7 °F 67.1 °F 30.14 in WSW 0.1 mph 3 mph 63.3% 0.00 in 167 W/m2
17:04 80.8 °F 67.1 °F 30.13 in Calm   3 mph 63% 0.00 in 185 W/m2
17:09 81 °F 67.5 °F 30.13 in West 0.2 mph 3 mph 63.6% 0.00 in 195 W/m2
17:13 81.2 °F 67.8 °F 30.13 in West 0.2 mph 5 mph 64% 0.00 in 158 W/m2
17:19 81.3 °F 67.6 °F 30.13 in WSW 0.5 mph 7 mph 63.2% 0.00 in 95 W/m2
17:24 81.3 °F 67.8 °F 30.14 in WSW 0.5 mph 7 mph 63.6% 0.00 in 60 W/m2
17:29 81.2 °F 67.9 °F 30.14 in SW 0.6 mph 7 mph 63.9% 0.00 in 63 W/m2
17:34 81 °F 67.4 °F 30.14 in SW 0.6 mph 7 mph 63.3% 0.00 in 58 W/m2
17:39 80.8 °F 67.5 °F 30.14 in SW 0.1 mph 3 mph 64% 0.00 in 70 W/m2
17:44 80.4 °F 67.2 °F 30.14 in Calm   3 mph 64.1% 0.00 in 77 W/m2
17:49 80.1 °F 67.2 °F 30.14 in SSW 0.1 mph 3 mph 64.8% 0.00 in 58 W/m2
17:54 79.9 °F 66.9 °F 30.14 in SSW 0.2 mph 3 mph 64.6% 0.00 in 49 W/m2
17:59 79.6 °F 66.7 °F 30.14 in Calm   3 mph 64.8% 0.00 in 49 W/m2
18:04 79.4 °F 67.1 °F 30.14 in SSW 0.1 mph 3 mph 66% 0.00 in 54 W/m2
18:09 79.3 °F 67.1 °F 30.14 in Calm   2 mph 66.3% 0.00 in 51 W/m2
18:14 79.2 °F 66.9 °F 30.14 in SSW 0.1 mph 3 mph 66% 0.00 in 47 W/m2
18:19 79.1 °F 66.7 °F 30.14 in SSW 0.1 mph 3 mph 65.8% 0.00 in 47 W/m2
18:24 78.9 °F 66.6 °F 30.14 in SSW 0.2 mph 3 mph 66% 0.00 in 35 W/m2
18:29 78.9 °F 67 °F 30.14 in Calm   3 mph 66.9% 0.00 in 46 W/m2
18:34 78.8 °F 66.9 °F 30.14 in SSW 0.1 mph 3 mph 66.9% 0.00 in 51 W/m2
18:39 78.7 °F 66.6 °F 30.14 in SSW 0.1 mph 3 mph 66.4% 0.00 in 47 W/m2
18:44 78.7 °F 66.8 °F 30.14 in Calm   3 mph 67% 0.00 in 42 W/m2
18:49 78.7 °F 66.8 °F 30.14 in SSW 0.1 mph 3 mph 67% 0.00 in 47 W/m2
18:54 78.6 °F 66.8 °F 30.14 in Calm   3 mph 67% 0.00 in 49 W/m2
18:59 78.6 °F 66.8 °F 30.14 in Calm   3 mph 67.2% 0.00 in 44 W/m2
19:04 78.5 °F 66.6 °F 30.15 in SSW 0.2 mph 3 mph 67% 0.00 in 33 W/m2
19:09 78.3 °F 66.4 °F 30.15 in South 0.3 mph 3 mph 66.8% 0.00 in 26 W/m2
19:14 78.1 °F 66 °F 30.15 in SSW 0.7 mph 5 mph 66.3% 0.00 in 19 W/m2
19:19 78 °F 65.7 °F 30.15 in SSW 0.5 mph 5 mph 66% 0.00 in 18 W/m2
19:24 77.8 °F 65.9 °F 30.15 in Calm   5 mph 66.9% 0.00 in 12 W/m2
19:28 77.7 °F 65.9 °F 30.15 in SSW 0.1 mph 5 mph 67% 0.00 in 11 W/m2
19:34 77.5 °F 66 °F 30.15 in SSW 0.1 mph 5 mph 67.6% 0.00 in 7 W/m2
19:39 77.3 °F 66 °F 30.15 in Calm   3 mph 68% 0.00 in 5 W/m2
19:44 77.1 °F 65.9 °F 30.15 in Calm   3 mph 68.5% 0.00 in 0 W/m2
19:49 76.9 °F 66 °F 30.15 in SSW 0.1 mph 4 mph 69.2% 0.00 in 0 W/m2
19:54 76.6 °F 66.1 °F 30.15 in SSW 0.1 mph 4 mph 70% 0.00 in 0 W/m2
19:59 76.3 °F 65.9 °F 30.16 in SSW 0.2 mph 4 mph 70% 0.00 in 0 W/m2
20:00 76.2 °F 65.7 °F 30.15 in Calm   4 mph 70% 0.00 in 0 W/m2
20:09 75.8 °F 65.7 °F 30.16 in SSW 0.2 mph 2 mph 71% 0.00 in 0 W/m2
20:14 75.6 °F 65.7 °F 30.16 in Calm   2 mph 71.4% 0.00 in 0 W/m2
20:19 75.4 °F 65.7 °F 30.16 in Calm   2 mph 72% 0.00 in 0 W/m2
20:24 75.2 °F 65.6 °F 30.16 in Calm   2 mph 72% 0.00 in 0 W/m2
20:29 75 °F 65.4 °F 30.16 in SSW 0.1 mph 2 mph 72% 0.00 in 0 W/m2
20:34 74.9 °F 65.6 °F 30.16 in Calm   2 mph 72.8% 0.00 in 0 W/m2
20:39 74.7 °F 65.5 °F 30.16 in Calm     73% 0.00 in 0 W/m2
20:44 74.6 °F 65.7 °F 30.16 in Calm     73.8% 0.00 in 0 W/m2
20:49 74.4 °F 65.6 °F 30.17 in Calm     74% 0.00 in 0 W/m2
20:54 74.3 °F 65.5 °F 30.17 in Calm     74% 0.00 in 0 W/m2
20:59 74.2 °F 65.5 °F 30.17 in Calm     74.2% 0.00 in 0 W/m2
21:04 74.2 °F 65.7 °F 30.17 in Calm     75% 0.00 in 0 W/m2
21:09 74.1 °F 65.7 °F 30.17 in Calm     75% 0.00 in 0 W/m2
21:14 74 °F 65.6 °F 30.17 in Calm     75% 0.00 in 0 W/m2
21:19 73.9 °F 65.9 °F 30.17 in Calm     76% 0.00 in 0 W/m2
21:24 73.9 °F 65.8 °F 30.17 in Calm     76% 0.00 in 0 W/m2
21:29 73.8 °F 65.7 °F 30.17 in Calm   1 mph 76% 0.00 in 0 W/m2
21:34 73.7 °F 65.9 °F 30.17 in Calm   1 mph 76.7% 0.00 in 0 W/m2
21:39 73.5 °F 65.9 °F 30.17 in Calm     77% 0.00 in 0 W/m2
21:44 73.4 °F 65.8 °F 30.17 in Calm     77% 0.00 in 0 W/m2
21:49 73.3 °F 65.7 °F 30.17 in Calm   1 mph 77% 0.00 in 0 W/m2
21:54 73.2 °F 65.6 °F 30.17 in Calm   1 mph 77% 0.00 in 0 W/m2
21:55 73.2 °F 65.6 °F 30.17 in Calm   1 mph 77% 0.00 in 0 W/m2
Hartford County Weather
Compliments of Weather Underground - 4 mb